»·PEaware :: N941CM KBOI-KOLM

N941CM :: KBOI-KOLM

FLIGHT INFORMATION

Flight Status: Arrived
Operator: Privately registered:
United States
More flights under this callsign
Pilot: Evan P. (5770)
Aircraft: ECLIPSE 500
(EA50)
More flights by this aircraft type
Origin: KBOI Boise Air Terminal/Gowen
United States
Destination: KOLM Olympia
United States
More flights between these airports :: More routes between these airports
Route: LICKS PREIS BKE J54 OLM
File this flight plan on PilotEdge
Remarks:
Altitude:
(Current/Filed)
28,000ft
Speed:
(Current/Filed)
371kts
Departed: 04-Jul-18 06:30 PM
Arrived: 04-Jul-18 07:50 PM
Distance/Time
Traveled:
348nm/1:20
Distance/Time
To Go:
Arrived

Flight Plot

Page will automatically refresh every two minutes.

Flight plan parsing failed; only flown route is shown


Map Options




Map Legend


Flown Route
Filed Route
Departure Airport
Arrival Airport
Navaid (VOR, NDB)
Fix

Horizontal Profiles

Position Reports

Time Latitude Longitude Heading Altitude Ground
Speed
04-Jul-18 18:11 43.562236 -116.206283 270 2864ft 0kts
04-Jul-18 18:12 43.562236 -116.206283 270 2864ft 0kts
04-Jul-18 18:13 43.562236 -116.206283 270 2864ft 0kts
04-Jul-18 18:14 43.562236 -116.206283 270 2864ft 0kts
04-Jul-18 18:15 43.562236 -116.206283 270 2864ft 0kts
04-Jul-18 18:16 43.562236 -116.206283 270 2864ft 0kts
04-Jul-18 18:17 43.562236 -116.206283 270 2864ft 0kts
04-Jul-18 18:18 43.562236 -116.206283 270 2864ft 0kts
04-Jul-18 18:19 43.562236 -116.206283 270 2864ft 0kts
04-Jul-18 18:20 43.562236 -116.206283 270 2864ft 0kts
04-Jul-18 18:21 43.562236 -116.206283 270 2864ft 0kts
04-Jul-18 18:22 43.562236 -116.206283 270 2864ft 0kts
04-Jul-18 18:23 43.562236 -116.206283 270 2864ft 0kts
04-Jul-18 18:24 43.562236 -116.206283 270 2864ft 0kts
04-Jul-18 18:25 43.562236 -116.206283 270 2864ft 0kts
04-Jul-18 18:26 43.562224 -116.206324 235 2864ft 1kts
04-Jul-18 18:27 43.560789 -116.205731 113 2864ft 10kts
04-Jul-18 18:28 43.559379 -116.202402 195 2867ft 0kts
04-Jul-18 18:29 43.559379 -116.202402 195 2867ft 0kts
04-Jul-18 18:30 43.558699 -116.203218 294 2865ft 5kts
04-Jul-18 18:31 43.567317 -116.231972 288 3394ft 149kts
04-Jul-18 18:32 43.583066 -116.290005 294 5473ft 175kts
04-Jul-18 18:33 43.614685 -116.340727 333 7447ft 195kts
04-Jul-18 18:34 43.660958 -116.370495 330 8657ft 203kts
04-Jul-18 18:35 43.712230 -116.406754 330 9955ft 212kts
04-Jul-18 18:36 43.764567 -116.445389 330 11394ft 218kts
04-Jul-18 18:37 43.818361 -116.485782 330 12763ft 224kts
04-Jul-18 18:38 43.873509 -116.527545 330 14060ft 229kts
04-Jul-18 18:39 43.929908 -116.570506 329 15278ft 234kts
04-Jul-18 18:40 43.987598 -116.614610 329 16424ft 238kts
04-Jul-18 18:41 44.045178 -116.658744 328 17476ft 242kts
04-Jul-18 18:42 44.103052 -116.703217 327 18447ft 245kts
04-Jul-18 18:43 44.159898 -116.754976 322 19348ft 247kts
04-Jul-18 18:44 44.207178 -116.822455 307 20203ft 246kts
04-Jul-18 18:45 44.253588 -116.892923 307 21006ft 248kts
04-Jul-18 18:46 44.300249 -116.964358 306 21864ft 245kts
04-Jul-18 18:47 44.345709 -117.034277 306 22703ft 243kts
04-Jul-18 18:48 44.391093 -117.104335 306 23403ft 244kts
04-Jul-18 18:49 44.436923 -117.175256 306 24527ft 247kts
04-Jul-18 18:50 44.483124 -117.246937 306 25740ft 250kts
04-Jul-18 18:51 44.529914 -117.319726 306 26869ft 254kts
04-Jul-18 18:52 44.577236 -117.393538 305 27899ft 257kts
04-Jul-18 18:53 44.583523 -117.403360 305 28014ft 258kts
04-Jul-18 18:54 44.682993 -117.559277 307 28074ft 311kts
04-Jul-18 18:55 44.740961 -117.650439 306 28073ft 315kts
04-Jul-18 18:56 44.768640 -117.694084 306 28077ft 316kts
04-Jul-18 18:57 44.855200 -117.841270 298 28078ft 332kts
04-Jul-18 18:58 44.906073 -117.951756 298 28077ft 341kts
04-Jul-18 18:59 44.957706 -118.065163 298 28077ft 347kts
04-Jul-18 19:00 45.009798 -118.180149 297 28063ft 351kts
04-Jul-18 19:01 45.062293 -118.296628 296 28052ft 352kts
04-Jul-18 19:02 45.113668 -118.411104 296 28059ft 351kts
04-Jul-18 19:03 45.164888 -118.525765 296 28086ft 349kts
04-Jul-18 19:04 45.216485 -118.641716 296 28075ft 348kts
04-Jul-18 19:05 45.266667 -118.754937 295 28013ft 350kts
04-Jul-18 19:06 45.318558 -118.872463 295 27965ft 350kts
04-Jul-18 19:07 45.369876 -118.989171 295 27965ft 350kts
04-Jul-18 19:08 45.421010 -119.105946 295 27959ft 349kts
04-Jul-18 19:09 45.472145 -119.223205 295 27946ft 349kts
04-Jul-18 19:10 45.523112 -119.340579 295 27937ft 349kts
04-Jul-18 19:11 45.574005 -119.458265 295 27937ft 349kts
04-Jul-18 19:12 45.624811 -119.576246 295 27937ft 349kts
04-Jul-18 19:13 45.674206 -119.691434 294 27941ft 349kts
04-Jul-18 19:14 45.724625 -119.809486 294 27942ft 349kts
04-Jul-18 19:15 45.775144 -119.928244 294 27941ft 349kts
04-Jul-18 19:15 45.817018 -120.027067 294 27945ft 349kts
04-Jul-18 19:17 45.875488 -120.165631 294 27991ft 348kts
04-Jul-18 19:17 45.917212 -120.264949 294 28021ft 348kts
04-Jul-18 19:18 45.928708 -120.292380 294 28021ft 348kts
04-Jul-18 19:19 46.015016 -120.499152 294 28021ft 348kts
04-Jul-18 19:20 46.063653 -120.616342 295 26077ft 339kts
04-Jul-18 19:21 46.102110 -120.709370 294 24114ft 326kts
04-Jul-18 19:22 46.145123 -120.813747 294 24007ft 316kts
04-Jul-18 19:23 46.190424 -120.924212 294 24003ft 325kts
04-Jul-18 19:24 46.236884 -121.037796 294 24001ft 333kts
04-Jul-18 19:25 46.284130 -121.153929 294 22879ft 339kts
04-Jul-18 19:26 46.331718 -121.271423 294 21253ft 337kts
04-Jul-18 19:27 46.377050 -121.383773 295 19294ft 328kts
04-Jul-18 19:28 46.422162 -121.496025 296 17292ft 318kts
04-Jul-18 19:29 46.465811 -121.605063 297 15292ft 308kts
04-Jul-18 19:30 46.505823 -121.709548 281 13320ft 293kts
04-Jul-18 19:31 46.523785 -121.822681 280 11585ft 287kts
04-Jul-18 19:32 46.542774 -121.934413 283 10102ft 282kts
04-Jul-18 19:33 46.561999 -122.044658 283 10002ft 281kts
04-Jul-18 19:34 46.581081 -122.154553 283 9309ft 278kts
04-Jul-18 19:35 46.599701 -122.261805 282 8319ft 269kts
04-Jul-18 19:36 46.616182 -122.357709 283 7102ft 226kts
04-Jul-18 19:37 46.631436 -122.446664 283 7015ft 213kts
04-Jul-18 19:38 46.645980 -122.532047 283 6728ft 217kts
04-Jul-18 19:39 46.660402 -122.617179 284 6092ft 217kts
04-Jul-18 19:40 46.674643 -122.701523 284 5495ft 217kts
04-Jul-18 19:41 46.688995 -122.786864 284 5050ft 215kts
04-Jul-18 19:42 46.703118 -122.862961 287 4829ft 202kts
04-Jul-18 19:43 46.714401 -122.918229 287 4345ft 206kts
04-Jul-18 19:44 46.714579 -122.919097 287 4338ft 206kts
04-Jul-18 19:45 46.811071 -122.960497 15 2723ft 187kts
04-Jul-18 19:46 46.859634 -122.940275 16 1933ft 173kts
04-Jul-18 19:47 46.902245 -122.924363 11 1404ft 142kts
04-Jul-18 19:48 46.935987 -122.914259 11 749ft 111kts
04-Jul-18 19:49 46.964554 -122.905862 11 213ft 93kts
04-Jul-18 19:50 46.975000 -122.902796 12 197ft 1kts
04-Jul-18 19:51 46.976068 -122.900593 98 194ft 4kts
04-Jul-18 19:52 46.976432 -122.899890 99 194ft 0kts

Navigation Log

Ident Type
Flight plan parsing failed, navigation log unavailable